Time;durP1;ratioP1;P1;durP2;ratioP2;P2;SDS_P1;SDS_P2;PMS_P1;PMS_P2;Temp;Humidity;BMP_temperature;BMP_pressure;BME280_temperature;BME280_humidity;BME280_pressure;Samples;Min_cycle;Max_cycle;Signal;HPM_P1;HPM_P2
2022/10/08 00:00:05;;;;;;;5.58;3.33;;;;;;;11.87;97.78;96966.30;1717244;82;20931;-88
2022/10/08 00:02:33;;;;;;;7.20;3.77;;;;;;;11.84;97.75;96966.17;1730251;83;20963;-88
2022/10/08 00:04:59;;;;;;;4.17;3.77;;;;;;;11.81;97.96;96958.71;1723408;83;20958;-88
2022/10/08 00:07:24;;;;;;;4.62;3.90;;;;;;;11.81;97.86;96960.51;1704665;82;21513;-88
2022/10/08 00:09:50;;;;;;;6.75;3.40;;;;;;;11.79;97.81;96956.78;1695703;83;21010;-88
2022/10/08 00:12:16;;;;;;;6.17;3.35;;;;;;;11.80;97.82;96953.68;1672013;86;21358;-88
2022/10/08 00:14:42;;;;;;;6.20;3.35;;;;;;;11.78;98.00;96948.62;1704009;83;21068;-87
2022/10/08 00:17:08;;;;;;;5.45;3.42;;;;;;;11.77;98.16;96943.59;1703203;83;21344;-88
2022/10/08 00:19:33;;;;;;;4.70;4.08;;;;;;;11.76;98.17;96944.09;1677605;84;21050;-88
2022/10/08 00:21:59;;;;;;;6.15;3.65;;;;;;;11.76;98.01;96938.88;1703985;83;20977;-88
2022/10/08 00:24:25;;;;;;;7.67;3.55;;;;;;;11.78;98.09;96936.09;1696486;84;20959;-88
2022/10/08 00:26:51;;;;;;;4.08;3.70;;;;;;;11.78;98.14;96929.59;1700989;83;21482;-88
2022/10/08 00:29:19;;;;;;;4.92;3.30;;;;;;;11.78;98.14;96929.09;1659091;85;21010;-88
2022/10/08 00:31:47;;;;;;;5.92;3.45;;;;;;;11.80;98.10;96936.76;1696569;84;21050;-88
2022/10/08 00:34:16;;;;;;;7.47;3.50;;;;;;;11.78;97.98;96926.98;1701628;84;21042;-88
2022/10/08 00:36:42;;;;;;;4.87;3.83;;;;;;;11.77;97.90;96929.27;1701386;84;21099;-87
2022/10/08 00:39:16;;;;;;;4.70;3.37;;;;;;;11.76;97.90;96922.45;1705465;84;21498;-88
2022/10/08 00:41:44;;;;;;;5.37;3.85;;;;;;;11.74;97.88;96923.93;1680483;84;21014;-87
2022/10/08 00:44:52;;;;;;;4.75;3.52;;;;;;;11.73;98.01;96920.52;1694768;83;20943;-88
2022/10/08 00:47:32;;;;;;;6.20;3.65;;;;;;;11.73;97.99;96924.42;1653051;86;21384;-88
2022/10/08 00:50:18;;;;;;;5.03;3.33;;;;;;;11.71;97.99;96921.19;1700088;83;21373;-88
2022/10/08 00:52:53;;;;;;;5.72;3.30;;;;;;;11.69;98.23;96914.52;1687284;83;20970;-87
2022/10/08 00:55:21;;;;;;;5.72;3.42;;;;;;;11.67;98.11;96914.69;1690581;83;20978;-88
2022/10/08 00:57:47;;;;;;;6.85;3.30;;;;;;;11.66;98.40;96910.47;1688784;83;20961;-87
2022/10/08 01:00:22;;;;;;;6.65;3.60;;;;;;;11.65;98.38;96904.95;1704408;83;21308;-87
2022/10/08 01:02:48;;;;;;;7.15;3.30;;;;;;;11.64;98.39;96908.54;1696432;84;21033;-88
2022/10/08 01:05:15;;;;;;;4.58;3.35;;;;;;;11.63;98.13;96900.91;1695461;84;21051;-87
2022/10/08 01:08:05;;;;;;;5.75;2.92;;;;;;;11.62;97.80;96900.10;1703438;83;21023;-88
2022/10/08 01:10:37;;;;;;;4.37;3.12;;;;;;;11.61;97.53;96898.98;1712188;83;21459;-87
2022/10/08 01:13:33;;;;;;;4.25;3.40;;;;;;;11.58;97.20;96898.84;1687676;84;21043;-87
2022/10/08 01:16:31;;;;;;;3.62;2.80;;;;;;;11.56;96.81;96900.00;1706183;82;21025;-88
2022/10/08 01:19:41;;;;;;;3.77;2.75;;;;;;;11.53;96.73;96896.42;1718072;83;21058;-88
2022/10/08 01:22:36;;;;;;;5.15;3.20;;;;;;;11.52;96.63;96894.81;1730922;82;20942;-87
2022/10/08 01:25:32;;;;;;;3.45;3.08;;;;;;;11.48;96.61;96888.34;1707040;82;21014;-87
2022/10/08 01:28:12;;;;;;;4.00;3.37;;;;;;;11.46;96.67;96887.71;1726277;83;21330;-87
2022/10/08 01:30:42;;;;;;;6.12;3.10;;;;;;;11.41;96.85;96892.95;1720146;83;21019;-87
2022/10/08 01:33:26;;;;;;;4.42;3.40;;;;;;;11.38;97.10;96885.47;1719534;83;21029;-87
2022/10/08 01:35:56;;;;;;;3.80;3.00;;;;;;;11.35;97.18;96885.83;1697196;84;21002;-87
2022/10/08 01:38:24;;;;;;;5.60;2.85;;;;;;;11.33;97.27;96883.08;1717671;83;21061;-87
2022/10/08 01:40:51;;;;;;;5.05;2.95;;;;;;;11.30;97.48;96880.34;1716721;82;20986;-87
2022/10/08 01:43:18;;;;;;;4.35;3.22;;;;;;;11.29;97.57;96873.52;1717531;83;20938;-87
2022/10/08 01:45:52;;;;;;;5.90;3.00;;;;;;;11.29;97.67;96873.52;1732413;82;21340;-88
2022/10/08 01:48:32;;;;;;;5.37;3.20;;;;;;;11.29;97.83;96879.22;1734790;82;21026;-88
2022/10/08 01:51:22;;;;;;;5.85;2.90;;;;;;;11.28;97.69;96872.40;1717951;82;20998;-88
2022/10/08 01:53:49;;;;;;;5.20;3.27;;;;;;;11.28;97.74;96873.20;1713684;82;20958;-86
2022/10/08 01:56:23;;;;;;;3.25;2.92;;;;;;;11.28;97.68;96868.50;1724952;82;20994;-88
2022/10/08 01:58:54;;;;;;;5.37;3.47;;;;;;;11.26;97.65;96866.08;1727855;83;21029;-87
2022/10/08 02:01:37;;;;;;;4.80;3.10;;;;;;;11.25;97.67;96861.86;1723283;83;20975;-88
2022/10/08 02:06:51;;;;;;;5.05;2.90;;;;;;;11.25;97.24;96868.85;1733225;82;21054;-88
2022/10/08 02:09:17;;;;;;;6.30;3.77;;;;;;;11.23;96.94;96865.12;1728764;83;21387;-88
2022/10/08 02:11:43;;;;;;;5.17;3.35;;;;;;;11.22;96.75;96871.28;1736840;82;20927;-88
2022/10/08 02:14:10;;;;;;;4.83;2.75;;;;;;;11.22;96.36;96872.58;1724973;82;20998;-88
2022/10/08 02:16:41;;;;;;;6.00;3.20;;;;;;;11.20;96.16;96870.65;1707591;83;21004;-88
2022/10/08 02:19:15;;;;;;;4.28;2.72;;;;;;;11.17;95.92;96870.19;1739976;82;21282;-88
2022/10/08 02:21:41;;;;;;;5.08;2.70;;;;;;;11.13;95.98;96869.25;1745618;82;20997;-87
2022/10/08 02:24:18;;;;;;;3.65;2.62;;;;;;;11.11;96.05;96866.50;1738296;82;21708;-87
2022/10/08 02:26:51;;;;;;;7.40;2.80;;;;;;;11.07;96.15;96863.45;1731628;82;20949;-88
2022/10/08 02:29:24;;;;;;;4.53;3.60;;;;;;;11.04;96.01;96868.97;1736524;82;21383;-88
2022/10/08 02:31:57;;;;;;;4.20;2.75;;;;;;;11.00;95.89;96865.09;1731933;82;21347;-88
2022/10/08 02:34:30;;;;;;;4.75;3.10;;;;;;;10.98;95.87;96864.95;1744426;82;20985;-88
2022/10/08 02:37:11;;;;;;;4.05;2.77;;;;;;;10.96;95.79;96864.33;1726969;83;21439;-88
2022/10/08 02:39:39;;;;;;;2.27;2.03;;;;;;;10.92;95.80;96857.36;1709996;82;21350;-88
2022/10/08 02:42:09;;;;;;;3.00;2.70;;;;;;;10.90;95.68;96861.09;1720159;83;21424;-86
2022/10/08 02:44:48;;;;;;;4.55;3.02;;;;;;;10.85;95.76;96859.02;1719155;82;20976;-88
2022/10/08 02:47:16;;;;;;;5.15;3.00;;;;;;;10.84;95.80;96865.20;1720537;82;20966;-88
2022/10/08 02:49:46;;;;;;;3.05;2.70;;;;;;;10.81;95.72;96858.55;1720177;82;21388;-87
2022/10/08 02:52:13;;;;;;;5.47;3.00;;;;;;;10.78;95.63;96861.99;1720011;82;21033;-88
2022/10/08 02:54:41;;;;;;;3.77;2.60;;;;;;;10.76;96.01;96864.77;1719511;82;20952;-87
2022/10/08 02:57:20;;;;;;;6.10;2.75;;;;;;;10.74;96.12;96864.12;1739532;82;21392;-88
2022/10/08 02:59:47;;;;;;;7.35;2.90;;;;;;;10.73;96.00;96863.78;1688372;82;20947;-87
2022/10/08 03:02:33;;;;;;;5.42;2.85;;;;;;;10.71;96.10;96867.05;1730207;82;21049;-88
2022/10/08 03:05:02;;;;;;;7.12;3.25;;;;;;;10.69;96.04;96865.60;1729270;82;21018;-88
2022/10/08 03:07:31;;;;;;;5.40;2.70;;;;;;;10.66;96.03;96866.76;1712341;82;21126;-88
2022/10/08 03:09:57;;;;;;;5.97;2.85;;;;;;;10.63;96.09;96863.20;1694156;83;20963;-88
2022/10/08 03:12:25;;;;;;;5.87;2.90;;;;;;;10.60;96.04;96860.14;1677560;84;21014;-88
2022/10/08 03:14:51;;;;;;;5.05;3.02;;;;;;;10.58;95.95;96868.60;1697973;84;21347;-88
2022/10/08 03:17:23;;;;;;;3.58;2.95;;;;;;;10.55;95.95;96864.52;1690472;83;21054;-88
2022/10/08 03:19:49;;;;;;;4.08;2.40;;;;;;;10.53;95.92;96864.70;1689847;83;20954;-88
2022/10/08 03:22:15;;;;;;;4.08;2.75;;;;;;;10.52;95.72;96862.27;1695481;83;21290;-88
2022/10/08 03:24:41;;;;;;;3.15;2.70;;;;;;;10.51;95.86;96865.85;1682135;85;20983;-86
2022/10/08 03:27:06;;;;;;;3.33;3.02;;;;;;;10.48;95.95;96859.20;1676923;85;21342;-88
2022/10/08 03:29:32;;;;;;;7.03;3.15;;;;;;;10.47;95.84;96866.69;1681314;84;21011;-88
2022/10/08 03:31:58;;;;;;;4.20;2.92;;;;;;;10.47;95.93;96860.68;1682091;85;21329;-88
2022/10/08 03:34:24;;;;;;;4.53;3.47;;;;;;;10.45;95.85;96862.64;1679523;85;20971;-88
2022/10/08 03:36:50;;;;;;;4.50;2.83;;;;;;;10.43;95.92;96858.11;1699942;84;21002;-88
2022/10/08 03:39:16;;;;;;;6.05;3.00;;;;;;;10.42;96.10;96864.28;1680711;84;21361;-88
2022/10/08 03:41:41;;;;;;;3.77;2.90;;;;;;;10.41;96.20;96863.47;1676489;84;21019;-87
2022/10/08 03:44:08;;;;;;;6.65;3.12;;;;;;;10.42;96.30;96861.69;1688195;83;20992;-88
2022/10/08 03:46:34;;;;;;;5.25;3.12;;;;;;;10.41;96.45;96859.58;1704608;84;20930;-88
2022/10/08 03:48:59;;;;;;;4.45;3.47;;;;;;;10.39;96.49;96853.71;1689376;84;20951;-87
2022/10/08 03:51:25;;;;;;;5.03;3.20;;;;;;;10.39;96.47;96857.61;1689512;83;21322;-88
2022/10/08 03:53:51;;;;;;;5.17;2.80;;;;;;;10.39;96.78;96857.61;1672725;85;21032;-88
2022/10/08 03:56:20;;;;;;;3.10;2.80;;;;;;;10.38;96.53;96853.39;1689278;83;21001;-87
2022/10/08 03:58:46;;;;;;;4.65;3.02;;;;;;;10.37;96.46;96858.77;1697803;83;20939;-88
2022/10/08 04:01:14;;;;;;;4.08;3.00;;;;;;;10.35;96.47;96854.23;1688817;83;20965;-87
2022/10/08 04:03:40;;;;;;;5.08;3.05;;;;;;;10.34;96.42;96852.13;1705406;84;21050;-88
2022/10/08 04:06:06;;;;;;;5.33;3.17;;;;;;;10.34;96.52;96853.91;1699371;83;21415;-87
2022/10/08 04:08:33;;;;;;;6.45;3.33;;;;;;;10.33;96.63;96850.99;1685611;83;20986;-88
2022/10/08 04:11:04;;;;;;;7.53;3.87;;;;;;;10.34;96.56;96852.61;1725635;83;20967;-88
2022/10/08 04:13:30;;;;;;;3.77;2.80;;;;;;;10.34;96.67;96851.31;1708586;83;21036;-88
2022/10/08 04:16:02;;;;;;;5.08;3.20;;;;;;;10.36;96.57;96854.05;1728388;83;21269;-88
2022/10/08 04:18:28;;;;;;;5.30;3.30;;;;;;;10.36;96.46;96854.55;1730325;82;20985;-88
2022/10/08 04:20:58;;;;;;;4.30;3.10;;;;;;;10.35;96.38;96851.63;1743599;81;21302;-88
2022/10/08 04:23:24;;;;;;;3.87;2.90;;;;;;;10.34;96.42;96857.31;1740817;82;20938;-88
2022/10/08 04:25:50;;;;;;;4.62;2.80;;;;;;;10.34;96.52;96860.41;1731269;82;21424;-88
2022/10/08 04:28:16;;;;;;;4.42;3.05;;;;;;;10.32;96.60;96848.08;1730489;81;21069;-87
2022/10/08 04:30:42;;;;;;;4.30;3.35;;;;;;;10.30;96.76;96845.65;1723949;82;20930;-87
2022/10/08 04:33:07;;;;;;;3.98;3.05;;;;;;;10.30;96.76;96848.73;1735652;82;20944;-88
2022/10/08 04:35:37;;;;;;;4.55;2.92;;;;;;;10.29;96.95;96841.92;1729577;82;20927;-88
2022/10/08 04:38:02;;;;;;;4.17;3.10;;;;;;;10.28;96.94;96845.02;1722785;81;21445;-88
2022/10/08 04:40:28;;;;;;;4.17;3.22;;;;;;;10.26;96.79;96842.27;1741363;81;21053;-88
2022/10/08 04:42:54;;;;;;;4.12;2.90;;;;;;;10.23;96.96;96840.30;1737184;81;20945;-88
2022/10/08 04:45:19;;;;;;;4.25;3.02;;;;;;;10.23;97.27;96844.20;1734695;82;20969;-88
2022/10/08 04:47:45;;;;;;;5.45;3.30;;;;;;;10.21;97.33;96835.77;1724887;81;20938;-88
2022/10/08 04:50:12;;;;;;;4.40;2.95;;;;;;;10.21;97.36;96840.96;1710410;83;22159;-88
2022/10/08 04:52:38;;;;;;;5.30;3.30;;;;;;;10.22;97.39;96839.17;1732412;82;21062;-86
2022/10/08 04:55:05;;;;;;;3.70;3.33;;;;;;;10.23;97.53;96836.89;1721921;82;21047;-88
2022/10/08 04:57:31;;;;;;;8.45;3.62;;;;;;;10.25;97.56;96838.02;1732547;82;21377;-88
2022/10/08 04:59:57;;;;;;;4.08;3.67;;;;;;;10.27;97.76;96839.98;1731751;82;21051;-88
2022/10/08 05:02:22;;;;;;;4.78;2.95;;;;;;;10.27;97.82;96838.20;1734695;82;20967;-88
2022/10/08 05:04:48;;;;;;;4.90;3.35;;;;;;;10.27;97.76;96834.30;1729837;82;21362;-88
2022/10/08 05:07:14;;;;;;;4.08;3.27;;;;;;;10.30;97.95;96838.34;1736493;81;21321;-88
2022/10/08 05:09:40;;;;;;;3.60;3.30;;;;;;;10.31;98.13;96838.66;1756629;81;20992;-88
2022/10/08 05:12:05;;;;;;;6.55;3.15;;;;;;;10.31;98.37;96832.98;1700424;82;21011;-88
2022/10/08 05:14:31;;;;;;;6.08;3.72;;;;;;;10.33;98.42;96839.30;1706418;83;20994;-88
2022/10/08 05:16:57;;;;;;;5.03;3.42;;;;;;;10.35;98.65;96839.94;1722571;82;21046;-88
2022/10/08 05:19:23;;;;;;;5.62;3.52;;;;;;;10.36;98.90;96838.96;1679935;84;21317;-88
2022/10/08 05:21:48;;;;;;;3.92;3.40;;;;;;;10.41;99.03;96835.36;1704729;82;20959;-88
2022/10/08 05:24:14;;;;;;;3.87;3.47;;;;;;;10.43;99.05;96836.84;1707152;83;20994;-88
2022/10/08 05:26:40;;;;;;;4.33;3.70;;;;;;;10.45;99.06;96828.87;1710138;82;20959;-88
2022/10/08 05:29:06;;;;;;;4.85;4.08;;;;;;;10.49;98.95;96836.14;1725798;82;21001;-88
2022/10/08 05:31:32;;;;;;;4.58;4.05;;;;;;;10.52;98.84;96834.50;1680073;84;21042;-88
2022/10/08 05:33:58;;;;;;;3.95;3.65;;;;;;;10.56;98.72;96842.76;1705222;83;21379;-88
2022/10/08 05:36:29;;;;;;;5.37;3.50;;;;;;;10.58;98.66;96838.23;1709314;83;21022;-88
2022/10/08 05:38:57;;;;;;;4.30;3.90;;;;;;;10.62;98.70;96838.69;1692772;84;21027;-88
2022/10/08 05:41:26;;;;;;;3.52;3.20;;;;;;;10.63;98.77;96848.91;1662177;85;21312;-88
2022/10/08 05:43:53;;;;;;;3.90;3.00;;;;;;;10.66;98.76;96849.05;1710079;84;21401;-88
2022/10/08 05:46:19;;;;;;;4.45;3.47;;;;;;;10.67;98.79;96851.97;1679696;85;21070;-87
2022/10/08 05:48:44;;;;;;;5.80;3.92;;;;;;;10.70;98.84;96854.22;1709837;82;21016;-88
2022/10/08 05:51:13;;;;;;;5.65;3.75;;;;;;;10.68;98.73;96851.80;1708515;82;20957;-88
2022/10/08 05:53:41;;;;;;;4.72;3.37;;;;;;;10.72;98.83;96857.45;1706000;84;20950;-88
2022/10/08 05:56:09;;;;;;;5.40;3.62;;;;;;;10.73;98.93;96862.48;1682733;84;21062;-88
2022/10/08 05:58:36;;;;;;;5.37;3.40;;;;;;;10.74;98.74;96862.02;1706496;82;21042;-87
2022/10/08 06:01:07;;;;;;;4.08;3.47;;;;;;;10.75;98.68;96860.55;1708586;84;21022;-88
2022/10/08 06:03:33;;;;;;;5.47;3.95;;;;;;;10.78;98.67;96865.89;1707361;84;20994;-88
2022/10/08 06:06:07;;;;;;;7.17;3.85;;;;;;;10.78;98.42;96861.50;1707829;84;20975;-89
2022/10/08 06:08:33;;;;;;;4.80;3.42;;;;;;;10.77;98.40;96866.38;1729012;82;21030;-88
2022/10/08 06:10:59;;;;;;;5.17;3.20;;;;;;;10.75;98.36;96867.05;1741070;82;21355;-88
2022/10/08 06:13:25;;;;;;;4.85;3.17;;;;;;;10.75;98.39;96871.44;1737127;81;20956;-87
2022/10/08 06:16:02;;;;;;;4.58;3.45;;;;;;;10.72;98.50;96868.66;1724221;81;20932;-88
2022/10/08 06:18:31;;;;;;;6.22;3.58;;;;;;;10.72;98.54;96871.27;1746752;81;21047;-88
2022/10/08 06:21:03;;;;;;;4.80;3.87;;;;;;;10.71;98.60;96868.84;1740980;82;21061;-88
2022/10/08 06:23:29;;;;;;;4.05;3.47;;;;;;;10.69;98.70;96870.31;1732319;81;21051;-88
2022/10/08 06:25:54;;;;;;;4.28;3.60;;;;;;;10.68;98.90;96873.08;1743146;82;21054;-87
2022/10/08 06:28:20;;;;;;;4.30;3.85;;;;;;;10.67;99.19;96874.88;1722139;82;21520;-88
2022/10/08 06:30:46;;;;;;;3.37;3.08;;;;;;;10.66;99.18;96878.94;1700268;83;20994;-88
2022/10/08 06:33:12;;;;;;;5.47;3.62;;;;;;;10.66;99.17;96881.05;1702578;83;21101;-88
2022/10/08 06:35:37;;;;;;;3.80;3.50;;;;;;;10.70;99.22;96880.22;1738315;81;21406;-88
2022/10/08 06:38:04;;;;;;;4.25;3.85;;;;;;;10.71;99.43;96883.13;1725344;82;21001;-87
2022/10/08 06:40:32;;;;;;;4.42;3.30;;;;;;;10.73;99.43;96882.47;1743450;82;21043;-88
2022/10/08 06:42:58;;;;;;;4.33;3.77;;;;;;;10.79;99.33;96890.91;1723341;82;21026;-88
2022/10/08 06:45:24;;;;;;;4.58;3.22;;;;;;;10.82;99.37;96889.26;1741208;82;21307;-88
2022/10/08 06:47:50;;;;;;;3.60;3.15;;;;;;;10.86;99.30;96887.12;1741116;82;20997;-88
2022/10/08 06:50:15;;;;;;;5.20;3.02;;;;;;;10.89;99.34;96885.47;1718350;82;20985;-88
2022/10/08 06:52:41;;;;;;;4.47;3.12;;;;;;;10.92;99.29;96885.16;1747204;81;20947;-88
2022/10/08 06:55:07;;;;;;;3.70;3.27;;;;;;;10.97;99.57;96890.15;1724775;82;20981;-88
2022/10/08 06:57:33;;;;;;;3.65;3.27;;;;;;;11.01;99.58;96894.02;1732246;82;20982;-88
2022/10/08 06:59:58;;;;;;;5.50;3.50;;;;;;;11.05;99.48;96887.48;1730040;82;21046;-88
2022/10/08 07:02:24;;;;;;;3.77;2.95;;;;;;;11.08;99.64;96885.87;1720042;82;21380;-88
2022/10/08 07:04:50;;;;;;;3.30;2.98;;;;;;;11.12;99.79;96885.03;1739083;81;20886;-88
2022/10/08 07:07:16;;;;;;;3.77;3.30;;;;;;;11.16;99.90;96884.98;1743229;81;20996;-88
2022/10/08 07:09:41;;;;;;;3.33;3.02;;;;;;;11.21;100.00;96879.27;1714841;81;21402;-88
2022/10/08 07:12:07;;;;;;;5.67;3.65;;;;;;;11.25;100.00;96880.06;1721393;82;20989;-88
2022/10/08 07:14:33;;;;;;;3.70;3.12;;;;;;;11.30;100.00;96881.64;1735144;82;20907;-88
2022/10/08 07:17:00;;;;;;;7.80;3.65;;;;;;;11.34;100.00;96884.20;1735432;82;21116;-88
2022/10/08 07:19:26;;;;;;;5.00;3.30;;;;;;;11.37;100.00;96880.45;1735088;82;21470;-88
2022/10/08 07:21:51;;;;;;;5.05;2.90;;;;;;;11.41;100.00;96881.73;1734321;82;21033;-88
2022/10/08 07:24:17;;;;;;;4.50;3.58;;;;;;;11.45;100.00;96873.89;1715916;82;20946;-88
2022/10/08 07:26:43;;;;;;;4.28;2.70;;;;;;;11.50;100.00;96868.97;1716710;82;21005;-87
2022/10/08 07:29:13;;;;;;;4.25;3.50;;;;;;;11.56;100.00;96867.47;1731804;82;20986;-88
2022/10/08 07:31:39;;;;;;;5.20;3.60;;;;;;;11.60;100.00;96865.63;1754634;81;21053;-88
2022/10/08 07:34:08;;;;;;;8.70;4.35;;;;;;;11.65;100.00;96854.69;1726297;81;20958;-87
2022/10/08 07:36:34;;;;;;;4.25;3.72;;;;;;;11.71;100.00;96853.51;1725945;82;21022;-88
2022/10/08 07:39:04;;;;;;;3.80;3.10;;;;;;;11.83;98.51;96855.69;1738639;81;21022;-88
2022/10/08 07:41:30;;;;;;;4.92;3.37;;;;;;;11.99;98.82;96853.73;1752660;81;21378;-88
2022/10/08 07:43:58;;;;;;;4.75;3.40;;;;;;;12.11;98.62;96854.59;1725726;81;20928;-88
2022/10/08 07:46:26;;;;;;;3.85;3.45;;;;;;;12.19;98.77;96859.20;1713340;82;21106;-88
2022/10/08 07:48:55;;;;;;;4.08;3.33;;;;;;;12.26;98.49;96862.73;1726816;82;20974;-88
2022/10/08 07:51:20;;;;;;;5.62;3.20;;;;;;;12.37;98.25;96863.27;1739767;82;20969;-88
2022/10/08 07:53:46;;;;;;;3.95;3.33;;;;;;;12.45;97.32;96856.64;1715826;82;21023;-88
2022/10/08 07:56:14;;;;;;;4.25;3.33;;;;;;;12.54;96.97;96856.38;1715653;82;20986;-88
2022/10/08 07:58:39;;;;;;;5.87;3.62;;;;;;;12.64;96.76;96856.07;1711168;82;21033;-88
2022/10/08 08:01:08;;;;;;;6.47;3.80;;;;;;;12.74;96.24;96855.80;1733142;82;21301;-88
2022/10/08 08:03:35;;;;;;;4.92;3.77;;;;;;;12.83;95.78;96858.59;1717528;82;20976;-88
2022/10/08 08:06:04;;;;;;;4.22;3.60;;;;;;;12.93;94.37;96860.41;1715860;84;21016;-88
2022/10/08 08:08:30;;;;;;;4.80;3.40;;;;;;;13.11;93.38;96860.80;1735762;81;21025;-88
2022/10/08 08:11:00;;;;;;;5.67;3.80;;;;;;;13.27;92.76;96857.17;1731816;82;21328;-88
2022/10/08 08:13:30;;;;;;;5.35;4.20;;;;;;;13.45;91.61;96858.03;1724805;82;20994;-88
2022/10/08 08:16:02;;;;;;;4.45;4.05;;;;;;;13.60;90.87;96856.16;1724073;81;21040;-88
2022/10/08 08:18:31;;;;;;;4.65;4.25;;;;;;;13.75;89.68;96856.88;1697978;82;20958;-88
2022/10/08 08:21:00;;;;;;;6.80;4.25;;;;;;;13.89;90.08;96855.67;1717288;82;21337;-88
2022/10/08 08:23:38;;;;;;;5.35;4.50;;;;;;;13.98;89.47;96840.13;1720602;82;20937;-88
2022/10/08 08:26:13;;;;;;;4.78;4.20;;;;;;;14.11;88.68;96842.33;1729160;82;20958;-88
2022/10/08 08:28:39;;;;;;;4.97;4.47;;;;;;;14.23;88.57;96851.75;1707264;83;20946;-88
2022/10/08 08:31:11;;;;;;;5.35;4.53;;;;;;;14.36;87.57;96852.33;1716792;82;20998;-88
2022/10/08 08:33:37;;;;;;;5.75;5.15;;;;;;;14.48;86.87;96849.98;1716008;82;21020;-88
2022/10/08 08:36:03;;;;;;;7.58;5.35;;;;;;;14.58;86.45;96850.44;1736547;81;20948;-88
2022/10/08 08:38:29;;;;;;;5.30;4.80;;;;;;;14.69;85.52;96847.27;1740587;81;21000;-88
2022/10/08 08:40:56;;;;;;;5.53;4.95;;;;;;;14.81;85.94;96844.41;1736551;81;20949;-88
2022/10/08 08:43:22;;;;;;;6.72;4.97;;;;;;;14.88;84.68;96856.98;1716767;82;20986;-88
2022/10/08 08:45:48;;;;;;;5.90;5.30;;;;;;;14.97;84.19;96854.52;1755181;81;21024;-88
2022/10/08 08:48:21;;;;;;;5.65;4.47;;;;;;;15.07;83.34;96859.34;1726632;82;20954;-88
2022/10/08 08:50:47;;;;;;;5.58;4.90;;;;;;;15.16;83.40;96859.98;1734445;81;21343;-88
2022/10/08 08:53:13;;;;;;;7.55;5.72;;;;;;;15.24;83.23;96858.47;1725529;81;21035;-88
2022/10/08 08:55:44;;;;;;;35.88;26.25;;;;;;;15.33;83.26;96857.30;1748360;81;20996;-88
2022/10/08 08:58:43;;;;;;;15.08;13.55;;;;;;;15.39;83.46;96853.86;1705287;82;21333;-89
2022/10/08 09:01:18;;;;;;;6.95;6.15;;;;;;;15.46;82.09;96865.67;1742780;82;20943;-89
2022/10/08 09:03:50;;;;;;;6.05;4.87;;;;;;;15.55;81.41;96859.21;1728242;81;20934;-88
2022/10/08 09:06:19;;;;;;;7.35;6.28;;;;;;;15.64;81.50;96859.86;1740042;82;20933;-89
2022/10/08 09:08:49;;;;;;;6.58;5.20;;;;;;;15.69;81.93;96853.51;1734638;81;21049;-89
2022/10/08 09:11:17;;;;;;;7.70;4.92;;;;;;;15.77;81.54;96854.59;1707705;82;20983;-88
2022/10/08 09:14:00;;;;;;;5.08;4.62;;;;;;;15.84;80.83;96844.93;1738349;82;20976;-89
2022/10/08 09:16:26;;;;;;;5.28;4.85;;;;;;;15.90;80.22;96840.98;1724063;82;21392;-88
2022/10/08 09:18:52;;;;;;;5.58;4.78;;;;;;;16.00;81.32;96847.64;1737085;82;20971;-88
2022/10/08 09:21:19;;;;;;;6.37;5.72;;;;;;;16.07;80.64;96853.66;1739597;82;21057;-88
2022/10/08 09:23:45;;;;;;;7.42;4.83;;;;;;;16.14;79.97;96846.09;1737465;82;21034;-89
2022/10/08 09:26:20;;;;;;;6.95;4.87;;;;;;;16.15;81.33;96833.29;1717932;82;21338;-89
2022/10/08 09:28:54;;;;;;;5.25;4.75;;;;;;;16.21;81.13;96840.32;1729014;82;21349;-89
2022/10/08 09:31:36;;;;;;;5.60;5.03;;;;;;;16.25;80.74;96843.84;1738507;82;20972;-88
2022/10/08 09:34:15;;;;;;;6.50;5.40;;;;;;;16.37;79.17;96841.69;1717833;82;20970;-88
2022/10/08 09:36:53;;;;;;;6.17;4.85;;;;;;;16.37;79.17;96841.69;1728598;82;20989;-88
2022/10/08 09:39:26;;;;;;;5.87;4.67;;;;;;;16.46;79.39;96840.97;1737775;82;21073;-88
2022/10/08 09:42:17;;;;;;;6.67;4.92;;;;;;;16.57;78.79;96840.80;1717678;82;20987;-86
2022/10/08 09:44:54;;;;;;;5.30;4.80;;;;;;;16.66;77.99;96844.31;1718321;82;20966;-88
2022/10/08 09:47:22;;;;;;;6.97;5.95;;;;;;;16.75;77.51;96844.39;1717969;82;20982;-89
2022/10/08 09:50:17;;;;;;;7.55;5.20;;;;;;;16.86;78.21;96846.06;1700863;82;21033;-88
2022/10/08 09:52:45;;;;;;;6.53;5.80;;;;;;;16.93;76.81;96842.41;1739716;82;21043;-88
2022/10/08 09:55:20;;;;;;;9.53;6.72;;;;;;;17.02;77.92;96833.25;1738628;82;21356;-88
2022/10/08 09:57:51;;;;;;;6.30;5.70;;;;;;;17.09;77.53;96834.03;1738214;82;21416;-88
2022/10/08 10:00:36;;;;;;;6.08;5.47;;;;;;;17.18;76.62;96840.33;1743408;82;21054;-89
2022/10/08 10:03:04;;;;;;;7.08;5.60;;;;;;;17.25;76.48;96832.72;1737000;82;20995;-88
2022/10/08 10:05:33;;;;;;;6.00;5.22;;;;;;;17.34;75.72;96831.94;1742395;82;20971;-88
2022/10/08 10:07:59;;;;;;;6.80;5.47;;;;;;;17.42;75.57;96834.32;1720918;82;21343;-89
2022/10/08 10:10:32;;;;;;;9.00;6.05;;;;;;;17.49;75.16;96829.80;1713000;82;21038;-88
2022/10/08 10:13:24;;;;;;;7.37;5.47;;;;;;;17.57;73.95;96828.72;1715785;82;21446;-89
2022/10/08 10:15:58;;;;;;;;;;;;;;;17.62;74.58;96826.27;1697516;84;20990;-88
2022/10/08 10:18:35;;;;;;;6.70;5.55;;;;;;;17.69;73.82;96825.22;1685224;84;20161;-89
2022/10/08 10:21:05;;;;;;;6.08;5.47;;;;;;;17.73;73.53;96821.64;1694574;84;21020;-87
2022/10/08 10:23:45;;;;;;;8.45;5.72;;;;;;;17.79;73.93;96823.94;1688850;84;21421;-86
2022/10/08 10:26:23;;;;;;;6.50;5.12;;;;;;;17.85;74.84;96817.29;1670292;85;21026;-86
2022/10/08 10:28:58;;;;;;;6.95;6.30;;;;;;;17.91;73.93;96820.39;1702632;82;20975;-87
2022/10/08 10:31:34;;;;;;;7.40;6.65;;;;;;;17.97;73.58;96815.56;1709189;83;20978;-87
2022/10/08 10:34:26;;;;;;;9.65;6.85;;;;;;;18.00;73.03;96819.06;1672324;85;21058;-86
2022/10/08 10:36:58;;;;;;;7.47;6.50;;;;;;;17.92;70.49;96815.42;1631343;85;21089;-86
2022/10/08 10:39:36;;;;;;;;;;;;;;;17.89;73.37;96813.20;1676146;84;21099;-86
2022/10/08 10:42:31;;;;;;;9.48;7.97;;;;;;;17.90;72.87;96809.58;1685042;84;20106;-85
2022/10/08 10:45:04;;;;;;;6.67;5.70;;;;;;;17.99;73.18;96808.26;1679399;85;21010;-88
2022/10/08 10:47:30;;;;;;;9.43;7.78;;;;;;;18.15;72.85;96808.70;1682187;84;21057;-88
2022/10/08 10:49:59;;;;;;;10.43;8.85;;;;;;;18.27;72.68;96809.08;1691875;84;20986;-88
2022/10/08 10:53:11;;;;;;;10.45;7.47;;;;;;;18.34;72.34;96815.56;1680998;84;21039;-87
2022/10/08 10:55:41;;;;;;;9.18;8.30;;;;;;;18.39;71.98;96805.72;1694383;84;20967;-87
2022/10/08 10:58:21;;;;;;;9.93;8.60;;;;;;;18.49;72.62;96804.16;1709174;82;21453;-89
2022/10/08 11:01:04;;;;;;;6.80;6.20;;;;;;;18.50;71.38;96808.91;1686099;84;21050;-88
2022/10/08 11:03:54;;;;;;;9.35;6.58;;;;;;;18.55;70.86;96804.61;1685468;82;21023;-87
2022/10/08 11:06:58;;;;;;;8.83;7.60;;;;;;;18.60;71.25;96801.30;1717668;83;21427;-86
2022/10/08 11:09:42;;;;;;;9.70;8.68;;;;;;;18.63;71.42;96794.79;1720671;82;21062;-89
2022/10/08 11:12:38;;;;;;;9.85;8.95;;;;;;;18.68;71.75;96801.02;1738639;81;20989;-87
2022/10/08 11:15:22;;;;;;;9.40;8.43;;;;;;;18.73;71.35;96799.86;1756419;81;21395;-88
2022/10/08 11:18:22;;;;;;;9.15;7.30;;;;;;;18.80;71.36;96800.56;1738079;81;21373;-88
2022/10/08 11:21:20;;;;;;;8.75;7.72;;;;;;;18.87;70.95;96798.66;1733007;81;21014;-88
2022/10/08 11:24:00;;;;;;;9.25;7.58;;;;;;;18.99;71.82;96792.61;1718447;82;20963;-88
2022/10/08 11:26:49;;;;;;;8.83;8.03;;;;;;;18.94;70.18;96794.60;1687895;84;21085;-87
2022/10/08 11:29:29;;;;;;;8.88;7.95;;;;;;;18.86;70.11;96788.31;1717916;83;20978;-88
2022/10/08 11:31:54;;;;;;;8.05;7.20;;;;;;;18.89;70.42;96784.75;1705057;84;20988;-87
2022/10/08 11:34:35;;;;;;;8.45;7.65;;;;;;;18.95;69.38;96787.50;1718131;82;21631;-87
2022/10/08 11:37:21;;;;;;;7.53;6.75;;;;;;;19.00;70.04;96788.42;1721708;82;21000;-87
2022/10/08 11:40:02;;;;;;;8.35;7.60;;;;;;;19.11;69.95;96788.18;1687884;84;20975;-87
2022/10/08 11:42:39;;;;;;;9.13;7.22;;;;;;;19.16;70.23;96777.24;1678719;82;20965;-88
2022/10/08 11:45:26;;;;;;;7.70;6.50;;;;;;;19.26;70.08;96778.53;1753801;81;20902;-89
2022/10/08 11:47:53;;;;;;;7.72;6.92;;;;;;;19.33;68.91;96776.59;1678062;84;21058;-88
2022/10/08 11:50:31;;;;;;;7.70;7.00;;;;;;;19.35;68.51;96771.89;1734583;81;20988;-88
2022/10/08 11:53:13;;;;;;;8.93;8.05;;;;;;;19.32;69.73;96766.56;1718502;81;21665;-88
2022/10/08 11:55:52;;;;;;;9.90;8.78;;;;;;;19.28;68.69;96763.30;1755209;81;21305;-88